sensor_id;sensor_type;location;lat;lon;timestamp;pressure;altitude;pressure_sealevel;temperature;humidity
31585;BME280;18191;51.288;12.390;2023-06-05T00:01:28;48704.50;;;-144.47;40.80
31585;BME280;18191;51.288;12.390;2023-06-05T00:06:19;48700.53;;;-144.47;40.54
31585;BME280;18191;51.288;12.390;2023-06-05T00:11:09;48698.53;;;-144.47;40.83
31585;BME280;18191;51.288;12.390;2023-06-05T00:15:59;48698.53;;;-144.47;40.41
31585;BME280;18191;51.288;12.390;2023-06-05T00:20:52;48692.56;;;-144.47;41.46
31585;BME280;18191;51.288;12.390;2023-06-05T00:25:43;48710.47;;;-144.47;40.96
31585;BME280;18191;51.288;12.390;2023-06-05T00:30:33;48726.38;;;-144.47;42.90
31585;BME280;18191;51.288;12.390;2023-06-05T00:35:23;48670.69;;;-144.47;43.25
31585;BME280;18191;51.288;12.390;2023-06-05T00:40:14;48698.53;;;-144.47;44.39
31585;BME280;18191;51.288;12.390;2023-06-05T00:45:05;48734.34;;;-144.47;46.99
31585;BME280;18191;51.288;12.390;2023-06-05T00:49:55;48734.34;;;-144.47;48.50
31585;BME280;18191;51.288;12.390;2023-06-05T00:54:46;48650.78;;;-144.47;48.70
31585;BME280;18191;51.288;12.390;2023-06-05T00:59:37;48694.56;;;-144.47;49.82
31585;BME280;18191;51.288;12.390;2023-06-05T01:04:30;48682.63;;;-144.47;50.63
31585;BME280;18191;51.288;12.390;2023-06-05T01:09:24;48690.56;;;-144.47;50.92
31585;BME280;18191;51.288;12.390;2023-06-05T01:14:18;48702.50;;;-144.47;51.65
31585;BME280;18191;51.288;12.390;2023-06-05T01:19:14;48720.41;;;-144.47;52.20
31585;BME280;18191;51.288;12.390;2023-06-05T01:24:04;48698.53;;;-144.47;51.76
31585;BME280;18191;51.288;12.390;2023-06-05T01:28:56;48698.53;;;-144.47;52.24
31585;BME280;18191;51.288;12.390;2023-06-05T01:33:55;48706.50;;;-144.47;52.47
31585;BME280;18191;51.288;12.390;2023-06-05T01:38:48;48710.47;;;-144.47;53.08
31585;BME280;18191;51.288;12.390;2023-06-05T01:43:39;48678.63;;;-144.47;53.48
31585;BME280;18191;51.288;12.390;2023-06-05T01:48:30;48682.63;;;-144.47;53.75
31585;BME280;18191;51.288;12.390;2023-06-05T01:53:20;48688.59;;;-144.47;54.00
31585;BME280;18191;51.288;12.390;2023-06-05T01:58:11;48702.50;;;-144.47;54.39
31585;BME280;18191;51.288;12.390;2023-06-05T02:03:03;48670.69;;;-144.47;55.06
31585;BME280;18191;51.288;12.390;2023-06-05T02:07:56;48698.53;;;-144.47;55.58
31585;BME280;18191;51.288;12.390;2023-06-05T02:12:48;48674.66;;;-144.47;54.94
31585;BME280;18191;51.288;12.390;2023-06-05T02:17:39;48702.50;;;-144.47;56.06
31585;BME280;18191;51.288;12.390;2023-06-05T02:22:34;48692.56;;;-144.47;55.47
31585;BME280;18191;51.288;12.390;2023-06-05T02:27:24;48698.53;;;-144.47;57.33
31585;BME280;18191;51.288;12.390;2023-06-05T02:32:18;48686.59;;;-144.47;57.69
31585;BME280;18191;51.288;12.390;2023-06-05T02:37:08;48694.56;;;-144.47;57.77
31585;BME280;18191;51.288;12.390;2023-06-05T02:41:59;48702.50;;;-144.47;58.99
31585;BME280;18191;51.288;12.390;2023-06-05T02:46:49;48696.53;;;-144.47;58.86
31585;BME280;18191;51.288;12.390;2023-06-05T02:51:39;48670.69;;;-144.47;58.86
31585;BME280;18191;51.288;12.390;2023-06-05T02:56:30;48682.63;;;-144.47;59.00
31585;BME280;18191;51.288;12.390;2023-06-05T03:01:20;48708.47;;;-144.47;59.47
31585;BME280;18191;51.288;12.390;2023-06-05T03:06:11;48704.50;;;-144.47;59.68
31585;BME280;18191;51.288;12.390;2023-06-05T03:11:03;48718.41;;;-144.47;60.65
31585;BME280;18191;51.288;12.390;2023-06-05T03:15:55;48726.38;;;-144.47;60.76
31585;BME280;18191;51.288;12.390;2023-06-05T03:20:50;48714.44;;;-144.47;62.12
31585;BME280;18191;51.288;12.390;2023-06-05T03:25:41;48686.59;;;-144.47;61.07
31585;BME280;18191;51.288;12.390;2023-06-05T03:30:31;48710.47;;;-144.47;61.76
31585;BME280;18191;51.288;12.390;2023-06-05T03:35:21;48738.31;;;-144.47;61.62
31585;BME280;18191;51.288;12.390;2023-06-05T03:40:12;48690.56;;;-144.47;60.81
31585;BME280;18191;51.288;12.390;2023-06-05T03:45:03;48730.34;;;-144.47;60.17
31585;BME280;18191;51.288;12.390;2023-06-05T03:49:53;48708.47;;;-144.47;60.46
31585;BME280;18191;51.288;12.390;2023-06-05T03:54:45;48678.63;;;-144.47;60.06
31585;BME280;18191;51.288;12.390;2023-06-05T03:59:37;48730.34;;;-144.47;59.99
31585;BME280;18191;51.288;12.390;2023-06-05T04:04:27;48722.41;;;-144.47;60.26
31585;BME280;18191;51.288;12.390;2023-06-05T04:09:17;48722.41;;;-144.47;60.28
31585;BME280;18191;51.288;12.390;2023-06-05T04:14:08;48712.44;;;-144.47;59.12
31585;BME280;18191;51.288;12.390;2023-06-05T04:18:59;48706.50;;;-144.47;60.49
31585;BME280;18191;51.288;12.390;2023-06-05T04:23:49;48694.56;;;-144.47;59.46
31585;BME280;18191;51.288;12.390;2023-06-05T04:28:40;48698.53;;;-144.47;59.04
31585;BME280;18191;51.288;12.390;2023-06-05T04:33:31;48668.69;;;-144.47;59.53
31585;BME280;18191;51.288;12.390;2023-06-05T04:38:21;48706.50;;;-144.47;58.85
31585;BME280;18191;51.288;12.390;2023-06-05T04:43:12;48678.63;;;-144.47;59.48
31585;BME280;18191;51.288;12.390;2023-06-05T04:48:04;48672.66;;;-144.47;59.45
31585;BME280;18191;51.288;12.390;2023-06-05T04:52:54;48690.56;;;-144.47;59.04
31585;BME280;18191;51.288;12.390;2023-06-05T04:57:45;48682.63;;;-144.47;53.93
31585;BME280;18191;51.288;12.390;2023-06-05T05:02:35;48720.41;;;-144.47;38.17
31585;BME280;18191;51.288;12.390;2023-06-05T05:07:26;48642.84;;;-144.47;34.84
31585;BME280;18191;51.288;12.390;2023-06-05T05:12:18;48634.88;;;-144.47;32.74
31585;BME280;18191;51.288;12.390;2023-06-05T05:17:08;48692.56;;;-144.47;31.99
31585;BME280;18191;51.288;12.390;2023-06-05T05:21:59;48658.75;;;-144.47;31.17
31585;BME280;18191;51.288;12.390;2023-06-05T05:26:50;48646.81;;;-144.47;30.42
31585;BME280;18191;51.288;12.390;2023-06-05T05:31:41;48646.81;;;-144.47;31.54
31585;BME280;18191;51.288;12.390;2023-06-05T05:36:31;48658.75;;;-144.47;31.28
31585;BME280;18191;51.288;12.390;2023-06-05T05:41:23;48642.84;;;-144.47;29.96
31585;BME280;18191;51.288;12.390;2023-06-05T05:46:13;48654.78;;;-144.47;29.84
31585;BME280;18191;51.288;12.390;2023-06-05T05:51:05;48670.69;;;-144.47;30.29
31585;BME280;18191;51.288;12.390;2023-06-05T05:55:55;48666.72;;;-144.47;30.77
31585;BME280;18191;51.288;12.390;2023-06-05T06:00:45;48646.81;;;-144.47;31.83
31585;BME280;18191;51.288;12.390;2023-06-05T06:05:36;48644.81;;;-144.47;32.51
31585;BME280;18191;51.288;12.390;2023-06-05T06:10:27;48630.91;;;-144.47;32.51
31585;BME280;18191;51.288;12.390;2023-06-05T06:15:17;48674.66;;;-144.47;32.86
31585;BME280;18191;51.288;12.390;2023-06-05T06:20:08;48672.66;;;-144.47;32.91
31585;BME280;18191;51.288;12.390;2023-06-05T06:25:02;48666.72;;;-144.47;34.25
31585;BME280;18191;51.288;12.390;2023-06-05T06:29:53;48700.53;;;-144.47;35.71
31585;BME280;18191;51.288;12.390;2023-06-05T06:34:44;48670.69;;;-144.47;35.91
31585;BME280;18191;51.288;12.390;2023-06-05T06:39:34;48698.53;;;-144.47;36.25
31585;BME280;18191;51.288;12.390;2023-06-05T06:44:25;48664.72;;;-144.47;36.28
31585;BME280;18191;51.288;12.390;2023-06-05T06:49:15;48688.59;;;-144.47;35.87
31585;BME280;18191;51.288;12.390;2023-06-05T06:54:06;48634.88;;;-144.47;35.28
31585;BME280;18191;51.288;12.390;2023-06-05T06:58:56;48662.72;;;-144.47;34.52
31585;BME280;18191;51.288;12.390;2023-06-05T07:03:46;48654.78;;;-144.47;33.39
31585;BME280;18191;51.288;12.390;2023-06-05T07:08:37;48666.72;;;-144.47;33.32
31585;BME280;18191;51.288;12.390;2023-06-05T07:13:27;48650.78;;;-144.47;32.74
31585;BME280;18191;51.288;12.390;2023-06-05T07:18:18;48642.84;;;-144.47;33.39
31585;BME280;18191;51.288;12.390;2023-06-05T07:23:09;48674.66;;;-144.47;32.38
31585;BME280;18191;51.288;12.390;2023-06-05T07:32:52;48678.63;;;-144.47;32.23
31585;BME280;18191;51.288;12.390;2023-06-05T07:37:42;48670.69;;;-144.47;32.10
31585;BME280;18191;51.288;12.390;2023-06-05T07:42:32;48646.81;;;-144.47;33.13
31585;BME280;18191;51.288;12.390;2023-06-05T07:47:23;48646.81;;;-144.47;33.36
31585;BME280;18191;51.288;12.390;2023-06-05T07:52:13;48662.72;;;-144.47;33.17
31585;BME280;18191;51.288;12.390;2023-06-05T07:57:03;48698.53;;;-144.47;33.70
31585;BME280;18191;51.288;12.390;2023-06-05T08:01:54;48706.50;;;-144.47;33.45
31585;BME280;18191;51.288;12.390;2023-06-05T08:06:47;48684.59;;;-144.47;34.16
31585;BME280;18191;51.288;12.390;2023-06-05T08:11:38;48698.53;;;-144.47;32.91
31585;BME280;18191;51.288;12.390;2023-06-05T08:16:29;48690.56;;;-144.47;33.08
31585;BME280;18191;51.288;12.390;2023-06-05T08:21:19;48720.41;;;-144.47;31.48
31585;BME280;18191;51.288;12.390;2023-06-05T08:26:10;48674.66;;;-144.47;32.50
31585;BME280;18191;51.288;12.390;2023-06-05T08:31:01;48658.75;;;-144.47;32.03
31585;BME280;18191;51.288;12.390;2023-06-05T08:35:51;48682.63;;;-144.47;31.88
31585;BME280;18191;51.288;12.390;2023-06-05T08:40:42;48672.66;;;-144.47;30.42
31585;BME280;18191;51.288;12.390;2023-06-05T08:45:33;48682.63;;;-144.47;30.07
31585;BME280;18191;51.288;12.390;2023-06-05T08:50:24;48672.66;;;-144.47;29.84
31585;BME280;18191;51.288;12.390;2023-06-05T08:55:16;48644.81;;;-144.47;30.04
31585;BME280;18191;51.288;12.390;2023-06-05T09:00:08;48670.69;;;-144.47;28.69
31585;BME280;18191;51.288;12.390;2023-06-05T09:05:00;48702.50;;;-144.47;28.72
31585;BME280;18191;51.288;12.390;2023-06-05T09:09:54;48660.75;;;-144.47;26.43
31585;BME280;18191;51.288;12.390;2023-06-05T09:14:44;48676.66;;;-144.47;26.85
31585;BME280;18191;51.288;12.390;2023-06-05T09:19:36;48666.72;;;-144.47;26.83
31585;BME280;18191;51.288;12.390;2023-06-05T09:24:27;48662.72;;;-144.47;26.38
31585;BME280;18191;51.288;12.390;2023-06-05T09:29:30;48678.63;;;-144.47;26.82
31585;BME280;18191;51.288;12.390;2023-06-05T09:34:28;48696.53;;;-144.47;26.53
31585;BME280;18191;51.288;12.390;2023-06-05T09:39:18;48662.72;;;-144.47;27.60
31585;BME280;18191;51.288;12.390;2023-06-05T09:44:10;48660.75;;;-144.47;26.54
31585;BME280;18191;51.288;12.390;2023-06-05T09:49:00;48678.63;;;-144.47;25.82
31585;BME280;18191;51.288;12.390;2023-06-05T09:53:51;48710.47;;;-144.47;25.05
31585;BME280;18191;51.288;12.390;2023-06-05T09:58:50;48654.78;;;-144.47;26.33
31585;BME280;18191;51.288;12.390;2023-06-05T10:03:44;48690.56;;;-144.47;26.06
31585;BME280;18191;51.288;12.390;2023-06-05T10:08:37;48672.66;;;-144.47;25.43
31585;BME280;18191;51.288;12.390;2023-06-05T10:13:28;48658.75;;;-144.47;25.28
31585;BME280;18191;51.288;12.390;2023-06-05T10:18:18;48694.56;;;-144.47;26.01
31585;BME280;18191;51.288;12.390;2023-06-05T10:23:09;48674.66;;;-144.47;24.81
31585;BME280;18191;51.288;12.390;2023-06-05T10:28:29;48660.75;;;-144.47;25.54
31585;BME280;18191;51.288;12.390;2023-06-05T10:33:31;48678.63;;;-144.47;24.40
31585;BME280;18191;51.288;12.390;2023-06-05T10:38:25;48650.78;;;-144.47;24.99
31585;BME280;18191;51.288;12.390;2023-06-05T10:43:27;48666.72;;;-144.47;25.65
31585;BME280;18191;51.288;12.390;2023-06-05T10:48:18;48670.69;;;-144.47;24.56
31585;BME280;18191;51.288;12.390;2023-06-05T10:53:46;48690.56;;;-144.47;25.92
31585;BME280;18191;51.288;12.390;2023-06-05T10:59:12;48686.59;;;-144.47;24.37
31585;BME280;18191;51.288;12.390;2023-06-05T11:04:06;48634.88;;;-144.47;24.65
31585;BME280;18191;51.288;12.390;2023-06-05T11:09:05;48684.59;;;-144.47;25.13
31585;BME280;18191;51.288;12.390;2023-06-05T11:13:56;48658.75;;;-144.47;25.12
31585;BME280;18191;51.288;12.390;2023-06-05T11:18:47;48696.53;;;-144.47;26.61
31585;BME280;18191;51.288;12.390;2023-06-05T11:23:39;48670.69;;;-144.47;26.00
31585;BME280;18191;51.288;12.390;2023-06-05T11:28:39;48682.63;;;-144.47;26.04
31585;BME280;18191;51.288;12.390;2023-06-05T11:33:29;48670.69;;;-144.47;26.24
31585;BME280;18191;51.288;12.390;2023-06-05T11:38:22;48694.56;;;-144.47;25.05
31585;BME280;18191;51.288;12.390;2023-06-05T11:43:13;48706.50;;;-144.47;25.87
31585;BME280;18191;51.288;12.390;2023-06-05T11:48:07;48662.72;;;-144.47;24.70
31585;BME280;18191;51.288;12.390;2023-06-05T11:53:07;48652.78;;;-144.47;24.91
31585;BME280;18191;51.288;12.390;2023-06-05T11:57:58;48674.66;;;-144.47;25.72
31585;BME280;18191;51.288;12.390;2023-06-05T12:02:48;48686.59;;;-144.47;25.57
31585;BME280;18191;51.288;12.390;2023-06-05T12:07:39;48668.69;;;-144.47;25.22
31585;BME280;18191;51.288;12.390;2023-06-05T12:12:29;48700.53;;;-144.47;24.62
31585;BME280;18191;51.288;12.390;2023-06-05T12:17:20;48710.47;;;-144.47;24.38
31585;BME280;18191;51.288;12.390;2023-06-05T12:22:12;48686.59;;;-144.47;24.99
31585;BME280;18191;51.288;12.390;2023-06-05T12:27:04;48688.59;;;-144.47;25.70
31585;BME280;18191;51.288;12.390;2023-06-05T12:31:57;48690.56;;;-144.47;25.76
31585;BME280;18191;51.288;12.390;2023-06-05T12:36:48;48698.53;;;-144.47;24.30
31585;BME280;18191;51.288;12.390;2023-06-05T12:41:39;48680.63;;;-144.47;24.44
31585;BME280;18191;51.288;12.390;2023-06-05T12:46:31;48702.50;;;-144.47;25.95
31585;BME280;18191;51.288;12.390;2023-06-05T12:51:21;48690.56;;;-144.47;25.88
31585;BME280;18191;51.288;12.390;2023-06-05T12:56:12;48708.47;;;-144.47;26.84
31585;BME280;18191;51.288;12.390;2023-06-05T13:01:02;48636.88;;;-144.47;27.00
31585;BME280;18191;51.288;12.390;2023-06-05T13:05:52;48662.72;;;-144.47;26.77
31585;BME280;18191;51.288;12.390;2023-06-05T13:10:42;48666.72;;;-144.47;26.19
31585;BME280;18191;51.288;12.390;2023-06-05T13:15:33;48688.59;;;-144.47;25.36
31585;BME280;18191;51.288;12.390;2023-06-05T13:20:23;48670.69;;;-144.47;24.80
31585;BME280;18191;51.288;12.390;2023-06-05T13:25:13;48690.56;;;-144.47;24.71
31585;BME280;18191;51.288;12.390;2023-06-05T13:30:04;48670.69;;;-144.47;23.72
31585;BME280;18191;51.288;12.390;2023-06-05T13:34:55;48738.31;;;-144.47;24.97
31585;BME280;18191;51.288;12.390;2023-06-05T13:39:47;48658.75;;;-144.47;25.68
31585;BME280;18191;51.288;12.390;2023-06-05T13:44:37;48694.56;;;-144.47;23.82
31585;BME280;18191;51.288;12.390;2023-06-05T13:49:27;48658.75;;;-144.47;24.08
31585;BME280;18191;51.288;12.390;2023-06-05T13:54:18;48678.63;;;-144.47;24.27
31585;BME280;18191;51.288;12.390;2023-06-05T13:59:08;48678.63;;;-144.47;23.67
31585;BME280;18191;51.288;12.390;2023-06-05T14:03:58;48730.34;;;-144.47;24.94
31585;BME280;18191;51.288;12.390;2023-06-05T14:08:49;48698.53;;;-144.47;24.13
31585;BME280;18191;51.288;12.390;2023-06-05T14:13:39;48658.75;;;-144.47;24.30
31585;BME280;18191;51.288;12.390;2023-06-05T14:18:30;48694.56;;;-144.47;23.74
31585;BME280;18191;51.288;12.390;2023-06-05T14:23:21;48698.53;;;-144.47;25.12
31585;BME280;18191;51.288;12.390;2023-06-05T14:28:13;48710.47;;;-144.47;24.87
31585;BME280;18191;51.288;12.390;2023-06-05T14:33:05;48706.50;;;-144.47;24.78
31585;BME280;18191;51.288;12.390;2023-06-05T14:37:56;48702.50;;;-144.47;23.29
31585;BME280;18191;51.288;12.390;2023-06-05T14:42:46;48666.72;;;-144.47;23.97
31585;BME280;18191;51.288;12.390;2023-06-05T14:47:36;48682.63;;;-144.47;23.32
31585;BME280;18191;51.288;12.390;2023-06-05T14:52:27;48668.69;;;-144.47;24.43
31585;BME280;18191;51.288;12.390;2023-06-05T14:57:17;48702.50;;;-144.47;24.00
31585;BME280;18191;51.288;12.390;2023-06-05T15:02:07;48738.31;;;-144.47;23.58
31585;BME280;18191;51.288;12.390;2023-06-05T15:06:58;48714.44;;;-144.47;23.87
31585;BME280;18191;51.288;12.390;2023-06-05T15:11:48;48690.56;;;-144.47;25.25
31585;BME280;18191;51.288;12.390;2023-06-05T15:16:40;48656.75;;;-144.47;24.89
31585;BME280;18191;51.288;12.390;2023-06-05T15:21:30;48702.50;;;-144.47;24.73
31585;BME280;18191;51.288;12.390;2023-06-05T15:26:20;48698.53;;;-144.47;25.48
31585;BME280;18191;51.288;12.390;2023-06-05T15:31:11;48676.66;;;-144.47;23.80
31585;BME280;18191;51.288;12.390;2023-06-05T15:36:01;48682.63;;;-144.47;24.65
31585;BME280;18191;51.288;12.390;2023-06-05T15:40:51;48690.56;;;-144.47;24.02
31585;BME280;18191;51.288;12.390;2023-06-05T15:45:42;48686.59;;;-144.47;23.84
31585;BME280;18191;51.288;12.390;2023-06-05T15:50:32;48684.59;;;-144.47;23.72
31585;BME280;18191;51.288;12.390;2023-06-05T15:55:25;48692.56;;;-144.47;24.42
31585;BME280;18191;51.288;12.390;2023-06-05T16:00:17;48718.41;;;-144.47;23.25
31585;BME280;18191;51.288;12.390;2023-06-05T16:05:08;48726.38;;;-144.47;23.35
31585;BME280;18191;51.288;12.390;2023-06-05T16:09:58;48706.50;;;-144.47;23.34
31585;BME280;18191;51.288;12.390;2023-06-05T16:14:49;48706.50;;;-144.47;23.08
31585;BME280;18191;51.288;12.390;2023-06-05T16:19:39;48714.44;;;-144.47;24.16
31585;BME280;18191;51.288;12.390;2023-06-05T16:24:29;48642.84;;;-144.47;24.54
31585;BME280;18191;51.288;12.390;2023-06-05T16:29:20;48718.41;;;-144.47;24.22
31585;BME280;18191;51.288;12.390;2023-06-05T16:34:11;48726.38;;;-144.47;25.19
31585;BME280;18191;51.288;12.390;2023-06-05T16:39:02;48698.53;;;-144.47;23.78
31585;BME280;18191;51.288;12.390;2023-06-05T16:43:53;48666.72;;;-144.47;24.33
31585;BME280;18191;51.288;12.390;2023-06-05T16:48:43;48658.75;;;-144.47;24.09
31585;BME280;18191;51.288;12.390;2023-06-05T16:53:35;48702.50;;;-144.47;23.91
31585;BME280;18191;51.288;12.390;2023-06-05T16:58:26;48686.59;;;-144.47;25.07
31585;BME280;18191;51.288;12.390;2023-06-05T17:03:16;48702.50;;;-144.47;24.00
31585;BME280;18191;51.288;12.390;2023-06-05T17:08:06;48658.75;;;-144.47;24.86
31585;BME280;18191;51.288;12.390;2023-06-05T17:12:56;48662.72;;;-144.47;23.88
31585;BME280;18191;51.288;12.390;2023-06-05T17:17:47;48690.56;;;-144.47;24.33
31585;BME280;18191;51.288;12.390;2023-06-05T17:22:37;48652.78;;;-144.47;24.27
31585;BME280;18191;51.288;12.390;2023-06-05T17:27:27;48662.72;;;-144.47;24.49
31585;BME280;18191;51.288;12.390;2023-06-05T17:32:18;48706.50;;;-144.47;25.60
31585;BME280;18191;51.288;12.390;2023-06-05T17:37:08;48642.84;;;-144.47;24.24
31585;BME280;18191;51.288;12.390;2023-06-05T17:42:01;48698.53;;;-144.47;23.85
31585;BME280;18191;51.288;12.390;2023-06-05T17:46:52;48682.63;;;-144.47;23.55
31585;BME280;18191;51.288;12.390;2023-06-05T17:51:46;48692.56;;;-144.47;23.20
31585;BME280;18191;51.288;12.390;2023-06-05T17:56:37;48696.53;;;-144.47;23.10
31585;BME280;18191;51.288;12.390;2023-06-05T18:01:27;48706.50;;;-144.47;24.09
31585;BME280;18191;51.288;12.390;2023-06-05T18:06:17;48688.59;;;-144.47;24.49
31585;BME280;18191;51.288;12.390;2023-06-05T18:11:08;48672.66;;;-144.47;24.12
31585;BME280;18191;51.288;12.390;2023-06-05T18:15:58;48706.50;;;-144.47;24.71
31585;BME280;18191;51.288;12.390;2023-06-05T18:20:48;48694.56;;;-144.47;25.57
31585;BME280;18191;51.288;12.390;2023-06-05T18:25:38;48678.63;;;-144.47;25.33
31585;BME280;18191;51.288;12.390;2023-06-05T18:30:29;48686.59;;;-144.47;25.72
31585;BME280;18191;51.288;12.390;2023-06-05T18:35:20;48652.78;;;-144.47;25.50
31585;BME280;18191;51.288;12.390;2023-06-05T18:40:11;48722.41;;;-144.47;27.55
31585;BME280;18191;51.288;12.390;2023-06-05T18:45:01;48702.50;;;-144.47;27.69
31585;BME280;18191;51.288;12.390;2023-06-05T18:49:52;48666.72;;;-144.47;27.77
31585;BME280;18191;51.288;12.390;2023-06-05T18:54:42;48690.56;;;-144.47;26.61
31585;BME280;18191;51.288;12.390;2023-06-05T18:59:32;48714.44;;;-144.47;26.85
31585;BME280;18191;51.288;12.390;2023-06-05T19:04:22;48706.50;;;-144.47;27.38
31585;BME280;18191;51.288;12.390;2023-06-05T19:09:13;48706.50;;;-144.47;27.21
31585;BME280;18191;51.288;12.390;2023-06-05T19:14:03;48698.53;;;-144.47;27.85
31585;BME280;18191;51.288;12.390;2023-06-05T19:18:53;48656.75;;;-144.47;29.78
31585;BME280;18191;51.288;12.390;2023-06-05T19:23:44;48722.41;;;-144.47;29.12
31585;BME280;18191;51.288;12.390;2023-06-05T19:28:35;48698.53;;;-144.47;29.83
31585;BME280;18191;51.288;12.390;2023-06-05T19:33:25;48704.50;;;-144.47;31.36
31585;BME280;18191;51.288;12.390;2023-06-05T19:38:16;48686.59;;;-144.47;32.72
31585;BME280;18191;51.288;12.390;2023-06-05T19:43:06;48690.56;;;-144.47;33.35
31585;BME280;18191;51.288;12.390;2023-06-05T19:47:56;48702.50;;;-144.47;34.56
31585;BME280;18191;51.288;12.390;2023-06-05T19:52:46;48694.56;;;-144.47;36.20
31585;BME280;18191;51.288;12.390;2023-06-05T19:57:43;48726.38;;;-144.47;37.21
31585;BME280;18191;51.288;12.390;2023-06-05T20:02:34;48718.41;;;-144.47;38.50
31585;BME280;18191;51.288;12.390;2023-06-05T20:07:24;48696.53;;;-144.47;38.88
31585;BME280;18191;51.288;12.390;2023-06-05T20:12:14;48704.50;;;-144.47;39.95
31585;BME280;18191;51.288;12.390;2023-06-05T20:17:05;48718.41;;;-144.47;40.27
31585;BME280;18191;51.288;12.390;2023-06-05T20:21:57;48736.31;;;-144.47;41.29
31585;BME280;18191;51.288;12.390;2023-06-05T20:26:52;48746.28;;;-144.47;41.15
31585;BME280;18191;51.288;12.390;2023-06-05T20:31:43;48706.50;;;-144.47;42.29
31585;BME280;18191;51.288;12.390;2023-06-05T20:36:33;48728.38;;;-144.47;45.15
31585;BME280;18191;51.288;12.390;2023-06-05T20:41:24;48714.44;;;-144.47;45.29
31585;BME280;18191;51.288;12.390;2023-06-05T20:46:16;48758.19;;;-144.47;47.98
31585;BME280;18191;51.288;12.390;2023-06-05T20:51:10;48758.19;;;-144.47;46.97
31585;BME280;18191;51.288;12.390;2023-06-05T20:56:03;48774.13;;;-144.47;47.17
31585;BME280;18191;51.288;12.390;2023-06-05T21:00:53;48770.13;;;-144.47;48.24
31585;BME280;18191;51.288;12.390;2023-06-05T21:05:43;48724.38;;;-144.47;48.75
31585;BME280;18191;51.288;12.390;2023-06-05T21:10:33;48730.34;;;-144.47;49.81
31585;BME280;18191;51.288;12.390;2023-06-05T21:15:24;48752.22;;;-144.47;50.87
31585;BME280;18191;51.288;12.390;2023-06-05T21:20:14;48746.28;;;-144.47;51.11
31585;BME280;18191;51.288;12.390;2023-06-05T21:25:05;48762.19;;;-144.47;49.67
31585;BME280;18191;51.288;12.390;2023-06-05T21:29:55;48778.09;;;-144.47;50.27
31585;BME280;18191;51.288;12.390;2023-06-05T21:34:46;48742.28;;;-144.47;52.15
31585;BME280;18191;51.288;12.390;2023-06-05T21:39:37;48718.41;;;-144.47;50.67
31585;BME280;18191;51.288;12.390;2023-06-05T21:44:30;48756.22;;;-144.47;50.72
31585;BME280;18191;51.288;12.390;2023-06-05T21:49:20;48750.25;;;-144.47;52.18
31585;BME280;18191;51.288;12.390;2023-06-05T21:54:11;48696.53;;;-144.47;51.91
31585;BME280;18191;51.288;12.390;2023-06-05T21:59:01;48714.44;;;-144.47;52.91
31585;BME280;18191;51.288;12.390;2023-06-05T22:03:52;48718.41;;;-144.47;52.19
31585;BME280;18191;51.288;12.390;2023-06-05T22:08:44;48730.34;;;-144.47;53.35
31585;BME280;18191;51.288;12.390;2023-06-05T22:13:35;48799.97;;;-144.47;53.21
31585;BME280;18191;51.288;12.390;2023-06-05T22:18:26;48750.25;;;-144.47;53.59
31585;BME280;18191;51.288;12.390;2023-06-05T22:23:17;48710.47;;;-144.47;53.22
31585;BME280;18191;51.288;12.390;2023-06-05T22:28:08;48720.41;;;-144.47;53.54
31585;BME280;18191;51.288;12.390;2023-06-05T22:32:58;48760.19;;;-144.47;53.65
31585;BME280;18191;51.288;12.390;2023-06-05T22:37:48;48770.13;;;-144.47;53.75
31585;BME280;18191;51.288;12.390;2023-06-05T22:42:40;48720.41;;;-144.47;54.08
31585;BME280;18191;51.288;12.390;2023-06-05T22:47:30;48740.31;;;-144.47;55.52
31585;BME280;18191;51.288;12.390;2023-06-05T22:52:23;48754.22;;;-144.47;54.39
31585;BME280;18191;51.288;12.390;2023-06-05T22:57:17;48742.28;;;-144.47;55.03
31585;BME280;18191;51.288;12.390;2023-06-05T23:02:07;48700.53;;;-144.47;55.97
31585;BME280;18191;51.288;12.390;2023-06-05T23:06:58;48738.31;;;-144.47;55.95
31585;BME280;18191;51.288;12.390;2023-06-05T23:11:49;48718.41;;;-144.47;55.82
31585;BME280;18191;51.288;12.390;2023-06-05T23:16:39;48734.34;;;-144.47;56.47
31585;BME280;18191;51.288;12.390;2023-06-05T23:21:30;48758.19;;;-144.47;57.02
31585;BME280;18191;51.288;12.390;2023-06-05T23:26:20;48778.09;;;-144.47;57.64
31585;BME280;18191;51.288;12.390;2023-06-05T23:31:16;48754.22;;;-144.47;57.42
31585;BME280;18191;51.288;12.390;2023-06-05T23:36:06;48766.16;;;-144.47;57.66
31585;BME280;18191;51.288;12.390;2023-06-05T23:40:56;48770.13;;;-144.47;58.02
31585;BME280;18191;51.288;12.390;2023-06-05T23:45:47;48734.34;;;-144.47;58.91
31585;BME280;18191;51.288;12.390;2023-06-05T23:50:37;48744.28;;;-144.47;58.44
31585;BME280;18191;51.288;12.390;2023-06-05T23:55:27;48740.31;;;-144.47;58.46
